Time;durP1;ratioP1;P1;durP2;ratioP2;P2;SDS_P1;SDS_P2;PMS_P1;PMS_P2;Temp;Humidity;BMP_temperature;BMP_pressure;BME280_temperature;BME280_humidity;BME280_pressure;Samples;Min_cycle;Max_cycle;Signal;HPM_P1;HPM_P2
2022/10/10 00:02:36;;;;;;;6.75;4.95;;;10.30;99.40;;;;;;5028187;28;20110;-58
2022/10/10 00:05:22;;;;;;;7.25;4.70;;;10.30;99.40;;;;;;5034407;28;20076;-60
2022/10/10 00:08:08;;;;;;;7.78;4.82;;;10.30;99.50;;;;;;5036918;28;20076;-60
2022/10/10 00:10:54;;;;;;;6.50;4.63;;;10.20;99.50;;;;;;4997801;28;20034;-60
2022/10/10 00:13:41;;;;;;;5.38;4.53;;;10.20;99.60;;;;;;5004523;28;20017;-59
2022/10/10 00:16:27;;;;;;;7.38;5.18;;;10.20;99.70;;;;;;5036349;28;20112;-60
2022/10/10 00:19:13;;;;;;;7.55;4.65;;;10.20;99.70;;;;;;5028137;28;20124;-59
2022/10/10 00:21:59;;;;;;;6.15;4.75;;;10.10;99.90;;;;;;5017935;28;20509;-58
2022/10/10 00:24:45;;;;;;;6.72;4.53;;;10.10;99.70;;;;;;5022541;28;20154;-59
2022/10/10 00:27:31;;;;;;;8.82;4.80;;;10.10;99.80;;;;;;5036165;28;20018;-59
2022/10/10 00:30:17;;;;;;;7.65;4.80;;;10.00;99.90;;;;;;5040609;28;20025;-57
2022/10/10 00:33:03;;;;;;;10.25;4.97;;;10.00;99.90;;;;;;5007048;28;20396;-59
2022/10/10 00:35:49;;;;;;;7.10;4.90;;;10.00;99.90;;;;;;5016990;28;20425;-60
2022/10/10 00:38:35;;;;;;;7.78;5.13;;;9.90;99.90;;;;;;5017454;28;20032;-59
2022/10/10 00:41:21;;;;;;;8.55;4.85;;;9.80;99.90;;;;;;5017359;28;20038;-59
2022/10/10 00:44:09;;;;;;;7.55;4.80;;;9.80;99.90;;;;;;5021131;28;20030;-59
2022/10/10 00:46:55;;;;;;;7.90;4.70;;;9.80;99.90;;;;;;5037826;28;20445;-60
2022/10/10 00:49:43;;;;;;;6.45;4.28;;;9.80;99.90;;;;;;5014607;28;20026;-57
2022/10/10 00:52:29;;;;;;;6.88;4.60;;;9.80;99.90;;;;;;5017048;28;20033;-58
2022/10/10 00:55:16;;;;;;;8.13;4.90;;;9.80;99.90;;;;;;5028866;28;20084;-59
2022/10/10 00:58:05;;;;;;;6.93;5.25;;;9.70;99.90;;;;;;5026770;28;20037;-57
2022/10/10 01:00:53;;;;;;;8.93;5.18;;;9.50;99.90;;;;;;5033342;28;20029;-60
2022/10/10 01:03:39;;;;;;;8.02;5.13;;;9.40;99.90;;;;;;5022951;28;20068;-58
2022/10/10 01:06:25;;;;;;;5.68;4.40;;;9.30;99.90;;;;;;5017380;28;20114;-60
2022/10/10 01:09:11;;;;;;;7.15;5.13;;;9.40;99.90;;;;;;5035526;28;20033;-60
2022/10/10 01:12:10;;;;;;;6.68;4.80;;;9.40;99.90;;;;;;5036310;28;20025;-57
2022/10/10 01:15:05;;;;;;;6.90;5.25;;;9.50;99.90;;;;;;4996289;28;20109;-60
2022/10/10 01:18:29;;;;;;;6.88;4.75;;;9.50;99.90;;;;;;4999788;28;20014;-60
2022/10/10 01:21:36;;;;;;;5.63;4.63;;;9.50;99.90;;;;;;5012391;28;20038;-60
2022/10/10 01:24:29;;;;;;;10.05;4.95;;;9.50;99.90;;;;;;5018080;28;20049;-58
2022/10/10 01:27:28;;;;;;;7.40;4.78;;;9.50;99.90;;;;;;5012986;28;20443;-60
2022/10/10 01:30:18;;;;;;;9.02;4.78;;;9.50;99.90;;;;;;5013432;28;20509;-60
2022/10/10 01:33:26;;;;;;;7.95;4.88;;;9.50;99.90;;;;;;4994596;28;20078;-61
2022/10/10 01:36:20;;;;;;;7.53;4.93;;;9.40;99.90;;;;;;5011646;28;20060;-60
2022/10/10 01:39:16;;;;;;;8.18;4.82;;;9.40;99.90;;;;;;5033109;28;20025;-59
2022/10/10 01:42:21;;;;;;;7.15;4.63;;;9.30;99.90;;;;;;5016438;28;20034;-58
2022/10/10 01:45:08;;;;;;;6.18;4.38;;;9.30;99.90;;;;;;5013843;28;20022;-57
2022/10/10 01:47:58;;;;;;;7.68;4.60;;;9.30;99.90;;;;;;4993832;28;20026;-58
2022/10/10 01:51:07;;;;;;;6.30;4.60;;;9.30;99.90;;;;;;5000028;28;20022;-60
2022/10/10 01:54:17;;;;;;;6.05;4.30;;;9.30;99.90;;;;;;5032768;28;20048;-60
2022/10/10 01:57:06;;;;;;;7.53;4.68;;;9.30;99.90;;;;;;5018332;28;20042;-59
2022/10/10 02:00:01;;;;;;;8.00;5.07;;;9.30;99.90;;;;;;5013518;28;20022;-61
2022/10/10 02:02:46;;;;;;;7.05;4.57;;;9.30;99.90;;;;;;5013684;28;20034;-61
2022/10/10 02:05:39;;;;;;;6.97;4.85;;;9.30;99.90;;;;;;5016053;28;20036;-61
2022/10/10 02:08:40;;;;;;;7.18;4.65;;;9.30;99.90;;;;;;5035100;28;20021;-60
2022/10/10 02:11:28;;;;;;;7.00;4.90;;;9.30;99.90;;;;;;5015454;28;20065;-62
2022/10/10 02:14:19;;;;;;;7.05;4.70;;;9.30;99.90;;;;;;5002499;28;20445;-59
2022/10/10 02:17:09;;;;;;;7.32;5.30;;;9.20;99.90;;;;;;5026460;28;20112;-61
2022/10/10 02:19:58;;;;;;;8.15;5.25;;;9.30;99.90;;;;;;5023977;28;20033;-60
2022/10/10 02:22:45;;;;;;;10.57;5.05;;;9.20;99.90;;;;;;5015117;28;20117;-59
2022/10/10 02:25:36;;;;;;;6.65;4.90;;;9.20;99.90;;;;;;5000312;28;20033;-58
2022/10/10 02:28:28;;;;;;;5.82;4.60;;;9.20;99.90;;;;;;5015922;28;20053;-58
2022/10/10 02:31:20;;;;;;;8.07;5.38;;;9.20;99.90;;;;;;5024115;28;20540;-59
2022/10/10 02:34:09;;;;;;;6.32;4.47;;;9.30;99.90;;;;;;5000347;28;20041;-59
2022/10/10 02:36:59;;;;;;;7.82;4.85;;;9.30;99.90;;;;;;5036133;28;20029;-60
2022/10/10 02:39:50;;;;;;;7.15;4.75;;;9.30;99.90;;;;;;5012655;28;20026;-61
2022/10/10 02:42:37;;;;;;;7.75;5.60;;;9.30;99.90;;;;;;5012275;28;20034;-58
2022/10/10 02:45:24;;;;;;;8.63;5.53;;;9.40;99.90;;;;;;5025299;28;20022;-58
2022/10/10 02:48:11;;;;;;;5.32;4.82;;;9.30;99.90;;;;;;5020899;28;20030;-58
2022/10/10 02:50:59;;;;;;;7.15;4.93;;;9.40;99.90;;;;;;5006003;28;20073;-59
2022/10/10 02:53:46;;;;;;;8.60;5.40;;;9.40;99.90;;;;;;5012741;28;20022;-60
2022/10/10 02:56:32;;;;;;;7.05;4.90;;;9.40;99.90;;;;;;5018472;28;20474;-58
2022/10/10 02:59:18;;;;;;;7.40;5.00;;;9.30;99.90;;;;;;5016082;28;20494;-58
2022/10/10 03:02:05;;;;;;;11.05;5.03;;;9.30;99.90;;;;;;5000604;28;20038;-58
2022/10/10 03:04:51;;;;;;;6.78;4.85;;;9.30;99.90;;;;;;5000483;28;20030;-59
2022/10/10 03:07:37;;;;;;;7.18;5.07;;;9.30;99.90;;;;;;5013553;28;20030;-59
2022/10/10 03:10:23;;;;;;;9.43;5.75;;;9.40;99.90;;;;;;5011124;28;20029;-59
2022/10/10 03:13:09;;;;;;;8.02;5.43;;;9.40;99.90;;;;;;5018281;28;20029;-58
2022/10/10 03:15:55;;;;;;;6.57;5.00;;;9.30;99.90;;;;;;5032995;28;20105;-58
2022/10/10 03:18:42;;;;;;;7.70;5.68;;;9.30;99.90;;;;;;5020259;28;20064;-60
2022/10/10 03:21:28;;;;;;;7.60;4.97;;;9.30;99.90;;;;;;5032812;28;20096;-61
2022/10/10 03:24:14;;;;;;;7.28;5.53;;;9.40;99.90;;;;;;5003506;28;20022;-57
2022/10/10 03:27:01;;;;;;;7.15;5.55;;;9.40;99.90;;;;;;5015448;28;20025;-59
2022/10/10 03:29:47;;;;;;;10.77;5.32;;;9.40;99.90;;;;;;5034944;28;20025;-59
2022/10/10 03:32:33;;;;;;;12.77;6.60;;;9.40;99.90;;;;;;4997353;28;20062;-59
2022/10/10 03:35:19;;;;;;;10.05;7.03;;;9.40;99.90;;;;;;5014473;28;20509;-56
2022/10/10 03:38:06;;;;;;;9.98;6.50;;;9.40;99.90;;;;;;5010955;28;20600;-57
2022/10/10 03:40:52;;;;;;;9.88;6.03;;;9.30;99.90;;;;;;5012316;28;20037;-60
2022/10/10 03:43:38;;;;;;;7.95;6.35;;;9.30;99.90;;;;;;5015940;28;20524;-58
2022/10/10 03:46:25;;;;;;;10.80;6.22;;;9.40;99.90;;;;;;5009143;28;20221;-60
2022/10/10 03:49:11;;;;;;;8.98;6.28;;;9.40;99.90;;;;;;5020879;28;20410;-59
2022/10/10 03:51:57;;;;;;;9.23;6.22;;;9.40;99.90;;;;;;5027291;28;20517;-59
2022/10/10 03:54:43;;;;;;;8.50;6.22;;;9.40;99.90;;;;;;5024269;28;20118;-57
2022/10/10 03:57:29;;;;;;;7.45;6.03;;;9.50;99.90;;;;;;5033002;28;20486;-59
2022/10/10 04:00:14;;;;;;;9.65;6.30;;;9.50;99.90;;;;;;5035445;28;20406;-59
2022/10/10 04:03:05;;;;;;;11.65;7.13;;;9.40;99.90;;;;;;5013039;28;20076;-60
2022/10/10 04:05:51;;;;;;;12.80;6.32;;;9.50;99.90;;;;;;4997187;28;20420;-57
2022/10/10 04:08:37;;;;;;;8.40;6.63;;;9.40;99.90;;;;;;5029890;28;20053;-60
2022/10/10 04:11:23;;;;;;;10.65;6.45;;;9.40;99.90;;;;;;5025611;28;20030;-59
2022/10/10 04:14:09;;;;;;;9.40;6.13;;;9.50;99.90;;;;;;5010432;28;20177;-59
2022/10/10 04:16:55;;;;;;;14.95;6.78;;;9.40;99.90;;;;;;5029090;28;20049;-60
2022/10/10 04:19:41;;;;;;;9.60;6.10;;;9.40;99.90;;;;;;5015961;28;20057;-60
2022/10/10 04:22:27;;;;;;;10.82;6.22;;;9.40;99.90;;;;;;4991650;28;20034;-61
2022/10/10 04:25:13;;;;;;;10.82;5.70;;;9.40;99.90;;;;;;4994366;28;20046;-61
2022/10/10 04:27:59;;;;;;;10.18;6.22;;;9.40;99.90;;;;;;5010792;28;20029;-60
2022/10/10 04:30:45;;;;;;;7.32;5.90;;;9.30;99.90;;;;;;5017550;28;20101;-58
2022/10/10 04:33:31;;;;;;;11.20;5.80;;;9.30;99.90;;;;;;5030515;28;20108;-61
2022/10/10 04:36:17;;;;;;;8.63;6.20;;;9.30;99.90;;;;;;5019214;28;20026;-61
2022/10/10 04:39:03;;;;;;;9.48;6.00;;;9.40;99.90;;;;;;5011116;28;20026;-61
2022/10/10 04:41:49;;;;;;;9.23;5.63;;;9.30;99.90;;;;;;5018861;28;20033;-60
2022/10/10 04:44:35;;;;;;;10.73;6.43;;;9.20;99.90;;;;;;5011507;28;20041;-58
2022/10/10 04:47:21;;;;;;;11.30;5.70;;;9.10;99.90;;;;;;5011806;28;20033;-59
2022/10/10 04:50:07;;;;;;;8.93;5.63;;;9.10;99.90;;;;;;5022188;28;20021;-58
2022/10/10 04:52:53;;;;;;;9.02;5.88;;;9.00;99.90;;;;;;5035248;28;20524;-60
2022/10/10 04:55:39;;;;;;;11.77;6.15;;;8.90;99.90;;;;;;5019764;28;20038;-58
2022/10/10 04:58:25;;;;;;;14.13;6.97;;;9.00;99.90;;;;;;5014490;28;20030;-60
2022/10/10 05:01:11;;;;;;;11.70;6.15;;;9.10;99.90;;;;;;5024125;28;20567;-60
2022/10/10 05:03:58;;;;;;;9.88;6.03;;;9.00;99.90;;;;;;5033174;28;20241;-59
2022/10/10 05:06:45;;;;;;;8.52;5.75;;;9.00;99.90;;;;;;5035445;28;20077;-60
2022/10/10 05:09:32;;;;;;;28.70;8.13;;;9.00;99.90;;;;;;4996542;28;20022;-60
2022/10/10 05:12:18;;;;;;;18.17;7.43;;;9.10;99.90;;;;;;5000121;28;20026;-61
2022/10/10 05:15:05;;;;;;;12.18;7.07;;;9.10;99.90;;;;;;5015674;28;20045;-60
2022/10/10 05:17:51;;;;;;;11.75;7.13;;;9.10;99.90;;;;;;5031760;28;20109;-59
2022/10/10 05:20:37;;;;;;;8.15;6.38;;;9.00;99.90;;;;;;4995133;28;20042;-61
2022/10/10 05:23:23;;;;;;;11.48;5.97;;;8.90;99.90;;;;;;4999843;28;20144;-60
2022/10/10 05:26:10;;;;;;;10.18;6.63;;;8.80;99.90;;;;;;5032725;28;20080;-60
2022/10/10 05:28:56;;;;;;;11.02;6.93;;;8.90;99.90;;;;;;5011540;28;20437;-60
2022/10/10 05:31:42;;;;;;;12.57;7.90;;;8.70;99.90;;;;;;5013070;28;20445;-60
2022/10/10 05:34:28;;;;;;;8.45;6.60;;;8.70;99.90;;;;;;4995132;28;20051;-60
2022/10/10 05:37:14;;;;;;;8.55;5.97;;;8.70;99.90;;;;;;4995262;28;20031;-61
2022/10/10 05:40:00;;;;;;;10.95;7.22;;;8.80;99.90;;;;;;5013641;28;20085;-57
2022/10/10 05:42:46;;;;;;;10.02;6.75;;;8.90;99.90;;;;;;5017568;28;20021;-60
2022/10/10 05:45:32;;;;;;;22.55;7.38;;;8.90;99.90;;;;;;5013168;28;20045;-60
2022/10/10 05:48:22;;;;;;;14.15;6.30;;;9.10;99.90;;;;;;5020135;28;20104;-60
2022/10/10 05:51:08;;;;;;;13.95;6.40;;;9.10;99.90;;;;;;5020324;28;20061;-62
2022/10/10 05:53:55;;;;;;;8.60;6.20;;;9.10;99.90;;;;;;5010542;28;20033;-61
2022/10/10 05:56:41;;;;;;;11.63;6.10;;;9.10;99.90;;;;;;4993903;28;20026;-59
2022/10/10 05:59:28;;;;;;;10.63;6.53;;;9.10;99.90;;;;;;5012781;28;20025;-59
2022/10/10 06:02:14;;;;;;;9.85;6.30;;;9.20;99.90;;;;;;5014166;28;20034;-59
2022/10/10 06:05:00;;;;;;;10.15;6.30;;;9.20;99.90;;;;;;4993597;28;20633;-60
2022/10/10 06:07:46;;;;;;;10.57;6.32;;;9.30;99.90;;;;;;4995293;28;20504;-60
2022/10/10 06:10:37;;;;;;;22.15;10.13;;;9.40;99.90;;;;;;5026814;28;20493;-61
2022/10/10 06:13:23;;;;;;;18.90;10.70;;;9.40;99.90;;;;;;4994523;28;20046;-61
2022/10/10 06:16:09;;;;;;;22.65;10.93;;;9.40;99.90;;;;;;5003573;28;20549;-60
2022/10/10 06:18:58;;;;;;;18.15;8.20;;;9.50;99.90;;;;;;5012254;28;20113;-60
2022/10/10 06:21:44;;;;;;;10.80;6.28;;;9.60;99.90;;;;;;5020104;28;20029;-60
2022/10/10 06:24:30;;;;;;;13.57;6.70;;;9.60;99.90;;;;;;5017779;28;20024;-61
2022/10/10 06:27:16;;;;;;;12.80;6.93;;;9.60;99.90;;;;;;5018075;28;20449;-59
2022/10/10 06:30:03;;;;;;;12.05;7.05;;;9.70;99.90;;;;;;5013016;28;20608;-59
2022/10/10 06:32:49;;;;;;;12.38;8.00;;;9.70;99.90;;;;;;4992240;28;20053;-61
2022/10/10 06:35:42;;;;;;;17.27;9.85;;;9.70;99.90;;;;;;5000284;28;20014;-57
2022/10/10 06:38:28;;;;;;;13.88;7.30;;;9.90;99.90;;;;;;5016550;28;20022;-61
2022/10/10 06:41:14;;;;;;;15.82;6.97;;;10.00;99.90;;;;;;5025676;28;20034;-61
2022/10/10 06:44:00;;;;;;;14.10;6.90;;;10.00;99.90;;;;;;5023482;28;20614;-59
2022/10/10 06:46:46;;;;;;;9.02;6.18;;;10.10;99.90;;;;;;5014483;28;20030;-62
2022/10/10 06:49:32;;;;;;;10.57;6.35;;;10.10;99.90;;;;;;5031871;28;20049;-61
2022/10/10 06:52:18;;;;;;;12.95;6.63;;;10.00;99.90;;;;;;5029091;28;20033;-59
2022/10/10 06:55:04;;;;;;;12.10;7.53;;;9.90;99.90;;;;;;5010540;28;20045;-60
2022/10/10 06:57:50;;;;;;;9.52;7.18;;;10.00;99.90;;;;;;5011404;28;20044;-59
2022/10/10 07:00:36;;;;;;;9.77;7.18;;;10.00;99.90;;;;;;5026333;28;20028;-62
2022/10/10 07:03:23;;;;;;;13.05;7.55;;;10.00;99.90;;;;;;4997430;28;20049;-62
2022/10/10 07:06:10;;;;;;;11.60;6.80;;;10.10;99.90;;;;;;5011875;28;20053;-61
2022/10/10 07:08:57;;;;;;;10.10;6.97;;;10.00;99.90;;;;;;5010763;28;20025;-62
2022/10/10 07:11:44;;;;;;;12.68;7.55;;;10.00;99.90;;;;;;4991334;28;20039;-62
2022/10/10 07:14:30;;;;;;;10.40;6.75;;;10.10;99.90;;;;;;4990685;28;20036;-61
2022/10/10 07:17:16;;;;;;;13.23;7.20;;;10.20;99.90;;;;;;5030359;28;20112;-61
2022/10/10 07:20:02;;;;;;;10.25;6.80;;;10.20;99.90;;;;;;4978201;28;20030;-59
2022/10/10 07:22:48;;;;;;;13.73;8.55;;;10.30;99.90;;;;;;5019088;28;20033;-57
2022/10/10 07:25:40;;;;;;;13.07;7.93;;;10.40;99.90;;;;;;5030779;28;20048;-59
2022/10/10 07:28:26;;;;;;;12.18;8.15;;;10.40;99.90;;;;;;5016740;28;20480;-61
2022/10/10 07:31:12;;;;;;;12.15;8.52;;;10.50;99.90;;;;;;5030911;28;20048;-58
2022/10/10 07:33:58;;;;;;;18.20;10.35;;;10.60;99.90;;;;;;5024722;28;20029;-59
2022/10/10 07:36:47;;;;;;;15.30;8.60;;;10.70;99.90;;;;;;4996187;28;20034;-59
2022/10/10 07:39:33;;;;;;;13.32;8.02;;;10.90;99.90;;;;;;5012933;28;20034;-52
2022/10/10 07:42:20;;;;;;;11.63;7.20;;;11.00;99.90;;;;;;5011510;28;20029;-52
2022/10/10 07:45:06;;;;;;;13.07;6.82;;;11.00;99.90;;;;;;5014482;28;20528;-57
2022/10/10 07:47:52;;;;;;;13.57;7.30;;;11.10;99.90;;;;;;5028946;28;20029;-56
2022/10/10 07:50:42;;;;;;;12.40;7.05;;;11.20;99.90;;;;;;4989399;28;20026;-59
2022/10/10 07:53:28;;;;;;;10.32;6.45;;;11.30;99.90;;;;;;4997447;28;20238;-60
2022/10/10 07:56:14;;;;;;;12.65;7.22;;;11.40;99.90;;;;;;5002902;28;20022;-54
2022/10/10 07:59:00;;;;;;;15.13;8.32;;;11.40;99.90;;;;;;5002743;28;20505;-52
2022/10/10 08:01:46;;;;;;;12.18;8.07;;;11.50;99.90;;;;;;5018602;28;20033;-56
2022/10/10 08:04:34;;;;;;;10.80;7.20;;;11.60;99.90;;;;;;5021641;28;20131;-55
2022/10/10 08:07:20;;;;;;;12.63;6.60;;;11.70;99.90;;;;;;5030220;28;20545;-59
2022/10/10 08:10:07;;;;;;;12.27;7.18;;;11.80;99.90;;;;;;5014923;28;20037;-61
2022/10/10 08:12:53;;;;;;;13.15;7.22;;;11.90;99.90;;;;;;4990913;28;20038;-58
2022/10/10 08:15:39;;;;;;;10.25;7.28;;;12.10;99.90;;;;;;5030551;28;20036;-57
2022/10/10 08:18:25;;;;;;;12.15;6.95;;;12.10;99.90;;;;;;5011404;28;20045;-61
2022/10/10 08:21:13;;;;;;;12.40;6.82;;;12.20;99.90;;;;;;4996970;28;20112;-54
2022/10/10 08:23:59;;;;;;;10.20;6.65;;;12.30;99.90;;;;;;5010808;28;20081;-56
2022/10/10 08:26:45;;;;;;;10.55;6.20;;;12.40;99.90;;;;;;5015709;28;20038;-57
2022/10/10 08:29:32;;;;;;;9.20;5.05;;;12.40;99.90;;;;;;5018128;28;20026;-53
2022/10/10 08:32:18;;;;;;;7.88;4.95;;;12.50;99.60;;;;;;5033788;28;20096;-57
2022/10/10 08:35:04;;;;;;;7.05;4.65;;;12.70;99.50;;;;;;5019668;28;20045;-53
2022/10/10 08:37:50;;;;;;;8.38;5.03;;;12.70;99.20;;;;;;5001877;28;20125;-59
2022/10/10 08:40:48;;;;;;;8.30;5.65;;;12.90;98.80;;;;;;5015608;28;20106;-57
2022/10/10 08:44:00;;;;;;;10.00;5.65;;;13.00;98.70;;;;;;5007879;28;20065;-54
2022/10/10 08:46:51;;;;;;;13.70;5.32;;;13.10;98.40;;;;;;5019461;28;20030;-57
2022/10/10 08:50:00;;;;;;;11.02;6.82;;;13.10;98.40;;;;;;5022933;28;20029;-56
2022/10/10 08:52:58;;;;;;;8.18;5.50;;;13.20;98.30;;;;;;5012530;28;20025;-58
2022/10/10 08:55:48;;;;;;;11.60;5.20;;;13.20;98.30;;;;;;5019982;28;20036;-58
2022/10/10 08:58:41;;;;;;;8.70;5.70;;;13.40;98.20;;;;;;4997806;28;20070;-54
2022/10/10 09:01:35;;;;;;;6.30;4.88;;;13.50;98.00;;;;;;5003707;28;20120;-61
2022/10/10 09:04:24;;;;;;;7.97;5.00;;;13.60;97.80;;;;;;5018655;28;20026;-59
2022/10/10 09:07:23;;;;;;;9.90;5.00;;;13.70;97.70;;;;;;5022170;28;20085;-55
2022/10/10 09:10:31;;;;;;;10.32;5.72;;;13.80;97.70;;;;;;5010298;28;20018;-60
2022/10/10 09:13:24;;;;;;;8.13;4.88;;;13.90;97.50;;;;;;5008758;28;20030;-62
2022/10/10 09:16:34;;;;;;;11.60;4.65;;;13.90;97.50;;;;;;5008781;28;20471;-61
2022/10/10 09:19:47;;;;;;;13.02;4.85;;;14.00;97.40;;;;;;5015950;28;20037;-61
2022/10/10 09:22:52;;;;;;;11.65;5.47;;;14.10;97.30;;;;;;5018160;28;20026;-61
2022/10/10 09:25:41;;;;;;;;;;;14.20;97.20;;;;;;5013820;28;20045;-61
2022/10/10 09:28:43;;;;;;;9.18;5.03;;;14.40;97.10;;;;;;5022751;28;19911;-61
2022/10/10 09:31:33;;;;;;;12.00;5.75;;;14.40;97.00;;;;;;5019058;28;20022;-61
2022/10/10 09:34:30;;;;;;;9.38;5.10;;;14.40;97.00;;;;;;5016948;28;20084;-61
2022/10/10 09:37:36;;;;;;;7.68;5.47;;;14.50;97.00;;;;;;5009464;28;20112;-60
2022/10/10 09:40:30;;;;;;;10.80;5.43;;;14.50;96.80;;;;;;5014376;28;20041;-58
2022/10/10 09:43:18;;;;;;;10.65;5.45;;;14.70;96.60;;;;;;5013417;28;20033;-60
2022/10/10 09:46:05;;;;;;;14.23;5.70;;;14.80;96.60;;;;;;4999277;28;20048;-57
2022/10/10 09:48:52;;;;;;;12.05;5.95;;;15.00;96.40;;;;;;5014009;28;20022;-59
2022/10/10 09:51:38;;;;;;;10.02;5.60;;;15.00;96.20;;;;;;5005199;28;20057;-58
2022/10/10 09:54:24;;;;;;;10.73;5.78;;;15.20;96.30;;;;;;5013826;28;20026;-57
2022/10/10 09:57:14;;;;;;;10.90;5.70;;;15.30;95.70;;;;;;5010813;28;20054;-57
2022/10/10 10:00:25;;;;;;;11.85;5.70;;;15.30;95.60;;;;;;5013878;28;20078;-62
2022/10/10 10:03:14;;;;;;;14.40;6.35;;;15.30;95.70;;;;;;5015801;28;20026;-59
2022/10/10 10:06:01;;;;;;;10.68;5.47;;;15.40;95.90;;;;;;5008521;28;20021;-60
2022/10/10 10:08:51;;;;;;;7.10;5.38;;;15.50;95.60;;;;;;5013759;28;20022;-57
2022/10/10 10:11:38;;;;;;;8.63;6.00;;;15.60;95.50;;;;;;5010387;28;20026;-58
2022/10/10 10:14:36;;;;;;;8.52;5.80;;;15.70;95.50;;;;;;4998820;28;20089;-61
2022/10/10 10:17:23;;;;;;;10.60;6.20;;;15.70;95.20;;;;;;5012447;28;20050;-59
2022/10/10 10:20:27;;;;;;;8.07;6.13;;;15.60;95.10;;;;;;5013334;28;20077;-59
2022/10/10 10:23:24;;;;;;;10.32;6.10;;;15.70;95.10;;;;;;5011335;28;20021;-59
2022/10/10 10:26:24;;;;;;;7.53;5.60;;;15.80;95.20;;;;;;5007622;28;20148;-59
2022/10/10 10:29:31;;;;;;;7.47;5.95;;;15.90;95.10;;;;;;4996890;28;20101;-56
2022/10/10 10:32:29;;;;;;;7.82;6.03;;;15.80;94.90;;;;;;5003922;28;20580;-59
2022/10/10 10:35:53;;;;;;;7.53;5.90;;;15.90;95.00;;;;;;5005240;28;20025;-58
2022/10/10 10:38:49;;;;;;;10.07;6.40;;;15.90;95.00;;;;;;4994244;28;20028;-60
2022/10/10 10:41:51;;;;;;;9.75;5.72;;;16.00;95.30;;;;;;5008226;28;20089;-58
2022/10/10 10:45:18;;;;;;;10.05;5.82;;;16.10;95.10;;;;;;5011280;28;20025;-59
2022/10/10 10:48:04;;;;;;;13.43;5.80;;;16.20;94.90;;;;;;4981521;28;20033;-55
2022/10/10 10:51:25;;;;;;;8.32;6.30;;;16.30;94.70;;;;;;5011587;28;20050;-57
2022/10/10 10:54:49;;;;;;;12.75;5.93;;;16.40;94.70;;;;;;5009441;28;20109;-55
2022/10/10 10:57:50;;;;;;;9.73;6.13;;;16.50;94.80;;;;;;5005166;28;20053;-57
2022/10/10 11:00:53;;;;;;;8.45;5.57;;;16.70;94.40;;;;;;5004157;28;20022;-58
2022/10/10 11:03:59;;;;;;;9.95;6.10;;;16.60;94.40;;;;;;5008338;28;20038;-59
2022/10/10 11:06:45;;;;;;;11.13;6.00;;;16.60;94.50;;;;;;5008822;28;20077;-57
2022/10/10 11:09:44;;;;;;;7.18;5.70;;;16.60;94.40;;;;;;5008496;28;20030;-58
2022/10/10 11:12:48;;;;;;;11.35;5.78;;;16.60;94.30;;;;;;5011934;28;20018;-54
2022/10/10 11:15:47;;;;;;;9.00;6.03;;;16.60;94.20;;;;;;5008275;28;20014;-57
2022/10/10 11:18:57;;;;;;;17.42;6.30;;;16.80;94.20;;;;;;5013003;28;20030;-57
2022/10/10 11:21:46;;;;;;;8.13;5.25;;;16.90;94.10;;;;;;4978992;28;20086;-57
2022/10/10 11:25:04;;;;;;;8.25;5.97;;;16.90;94.10;;;;;;5010559;28;20017;-56
2022/10/10 11:28:04;;;;;;;10.75;6.20;;;16.90;93.70;;;;;;5000037;28;20569;-57
2022/10/10 11:30:58;;;;;;;9.90;5.78;;;17.00;93.80;;;;;;5008908;28;20022;-58
2022/10/10 11:33:50;;;;;;;8.85;5.32;;;17.10;93.70;;;;;;5015708;28;20101;-57
2022/10/10 11:36:40;;;;;;;9.30;5.68;;;17.00;93.80;;;;;;5014257;28;20032;-58
2022/10/10 11:39:44;;;;;;;8.75;5.00;;;17.10;93.80;;;;;;5008766;28;20026;-58
2022/10/10 11:42:37;;;;;;;8.10;5.50;;;17.30;93.70;;;;;;5003635;28;20569;-57
2022/10/10 11:45:28;;;;;;;8.15;5.55;;;17.40;93.40;;;;;;5017162;28;20109;-55
2022/10/10 11:48:20;;;;;;;10.85;5.07;;;17.30;93.40;;;;;;4996092;28;20046;-56
2022/10/10 11:51:19;;;;;;;8.30;5.68;;;17.30;93.70;;;;;;5002886;28;20037;-57
2022/10/10 11:54:16;;;;;;;11.45;5.68;;;17.40;93.70;;;;;;5005927;28;20017;-54
2022/10/10 11:57:10;;;;;;;9.32;5.53;;;17.40;93.30;;;;;;4991316;28;20100;-58
2022/10/10 12:00:09;;;;;;;12.82;5.78;;;17.40;93.60;;;;;;5002626;28;20109;-55
2022/10/10 12:02:56;;;;;;;10.65;6.13;;;17.60;93.40;;;;;;5003327;28;20482;-58
2022/10/10 12:05:54;;;;;;;7.65;5.25;;;17.50;93.30;;;;;;5010277;28;20021;-59
2022/10/10 12:08:50;;;;;;;6.68;5.07;;;17.40;93.30;;;;;;5002775;28;20109;-56
2022/10/10 12:11:47;;;;;;;12.10;6.30;;;17.50;93.60;;;;;;5010800;28;20432;-58
2022/10/10 12:14:38;;;;;;;8.63;5.28;;;17.80;93.30;;;;;;5003906;28;20026;-57
2022/10/10 12:17:30;;;;;;;8.18;4.85;;;18.00;92.90;;;;;;5012165;28;20049;-54
2022/10/10 12:20:21;;;;;;;7.65;5.13;;;18.10;92.60;;;;;;5012299;28;20032;-55
2022/10/10 12:23:13;;;;;;;11.90;5.28;;;18.00;92.70;;;;;;5020268;28;20054;-55
2022/10/10 12:25:59;;;;;;;11.63;5.35;;;18.10;92.90;;;;;;5006119;28;20069;-57
2022/10/10 12:29:08;;;;;;;8.65;4.68;;;18.20;92.60;;;;;;5019093;28;20105;-57
2022/10/10 12:32:13;;;;;;;7.55;4.88;;;18.40;92.30;;;;;;5011935;28;20061;-57
2022/10/10 12:35:00;;;;;;;7.83;4.80;;;18.70;92.10;;;;;;5012419;28;20041;-57
2022/10/10 12:38:04;;;;;;;6.28;4.40;;;18.80;91.80;;;;;;5011094;28;20105;-57
2022/10/10 12:40:56;;;;;;;7.93;4.55;;;18.80;91.80;;;;;;5014667;28;20627;-56
2022/10/10 12:43:43;;;;;;;10.45;4.93;;;18.80;91.70;;;;;;5011407;28;20026;-56
2022/10/10 12:46:31;;;;;;;6.35;4.20;;;19.00;91.70;;;;;;5003875;28;20053;-59
2022/10/10 12:49:26;;;;;;;7.07;4.38;;;19.00;91.30;;;;;;5006790;28;20387;-59
2022/10/10 12:52:47;;;;;;;8.80;4.00;;;19.00;91.30;;;;;;4997273;28;20202;-60
2022/10/10 12:55:45;;;;;;;7.65;4.55;;;19.20;91.10;;;;;;5012953;28;20117;-56
2022/10/10 12:58:38;;;;;;;8.27;4.63;;;19.10;91.10;;;;;;5012754;28;20452;-54
2022/10/10 13:01:34;;;;;;;7.28;4.47;;;19.20;91.10;;;;;;5009482;28;20401;-55
2022/10/10 13:04:21;;;;;;;10.05;4.60;;;19.40;91.20;;;;;;4999990;28;20026;-59
2022/10/10 13:07:14;;;;;;;14.02;4.30;;;19.40;90.70;;;;;;5006779;28;20026;-58
2022/10/10 13:10:07;;;;;;;7.85;5.22;;;19.50;90.80;;;;;;5006155;28;20029;-58
2022/10/10 13:13:16;;;;;;;8.32;4.47;;;19.60;90.90;;;;;;5012886;28;20044;-59
2022/10/10 13:16:10;;;;;;;5.65;4.53;;;19.90;90.60;;;;;;5018443;28;20034;-58
2022/10/10 13:18:58;;;;;;;9.38;4.65;;;20.10;90.00;;;;;;5014343;28;20025;-60
2022/10/10 13:21:44;;;;;;;6.32;4.43;;;20.10;90.40;;;;;;4994287;28;20026;-59
2022/10/10 13:24:30;;;;;;;7.65;4.03;;;20.20;89.80;;;;;;5011782;28;20132;-60
2022/10/10 13:27:23;;;;;;;9.43;4.35;;;20.30;90.10;;;;;;5009048;28;20018;-58
2022/10/10 13:30:20;;;;;;;10.63;4.35;;;20.30;89.70;;;;;;5013145;28;20076;-58
2022/10/10 13:33:16;;;;;;;7.25;4.55;;;20.20;90.00;;;;;;5014571;28;20029;-60
2022/10/10 13:36:06;;;;;;;8.75;4.30;;;20.40;89.60;;;;;;5015685;28;20018;-58
2022/10/10 13:38:52;;;;;;;12.13;5.30;;;20.70;88.70;;;;;;5013725;28;20033;-58
2022/10/10 13:41:38;;;;;;;6.15;4.50;;;20.80;88.30;;;;;;5014968;28;20069;-58
2022/10/10 13:44:30;;;;;;;10.57;4.95;;;20.90;88.10;;;;;;5014624;28;20021;-58
2022/10/10 13:47:44;;;;;;;6.57;4.45;;;20.90;87.80;;;;;;5008376;28;20497;-59
2022/10/10 13:50:32;;;;;;;8.77;4.32;;;20.90;88.40;;;;;;5011955;28;20160;-55
2022/10/10 13:53:30;;;;;;;8.93;4.65;;;21.00;88.50;;;;;;5012683;28;20025;-60
2022/10/10 13:56:36;;;;;;;10.27;4.40;;;21.20;87.90;;;;;;5012734;28;20026;-58
2022/10/10 13:59:23;;;;;;;10.45;5.25;;;21.10;87.10;;;;;;5014704;28;20018;-61
2022/10/10 14:02:17;;;;;;;7.45;4.45;;;21.00;87.70;;;;;;5011817;28;20034;-60
2022/10/10 14:05:12;;;;;;;9.52;4.72;;;21.20;87.40;;;;;;5017711;28;20108;-58
2022/10/10 14:07:58;;;;;;;7.70;4.53;;;21.40;86.60;;;;;;5004181;28;20488;-59
2022/10/10 14:11:06;;;;;;;10.45;4.82;;;21.30;86.30;;;;;;5015434;28;20068;-60
2022/10/10 14:13:58;;;;;;;8.82;4.47;;;21.40;86.10;;;;;;5016536;28;20069;-57
2022/10/10 14:16:44;;;;;;;7.80;4.22;;;21.60;85.50;;;;;;5000303;28;20029;-58
2022/10/10 14:19:31;;;;;;;8.50;4.57;;;21.70;85.70;;;;;;5015703;28;20026;-59
2022/10/10 14:22:18;;;;;;;8.02;4.10;;;21.90;85.10;;;;;;5015629;28;20040;-59
2022/10/10 14:25:04;;;;;;;7.63;4.55;;;21.90;84.60;;;;;;5012185;28;20077;-58
2022/10/10 14:27:50;;;;;;;10.30;4.97;;;21.80;84.70;;;;;;5013231;28;20092;-58
2022/10/10 14:30:36;;;;;;;9.93;4.38;;;21.90;84.80;;;;;;5007956;28;20030;-58
2022/10/10 14:33:25;;;;;;;14.02;4.70;;;22.10;84.40;;;;;;5010561;28;20398;-59
2022/10/10 14:36:12;;;;;;;10.93;4.25;;;22.10;83.90;;;;;;5002272;28;20968;-59
2022/10/10 14:38:58;;;;;;;9.73;4.28;;;22.20;84.00;;;;;;5002390;28;20113;-59
2022/10/10 14:41:44;;;;;;;9.35;4.78;;;22.50;83.20;;;;;;5013747;28;20456;-56
2022/10/10 14:44:30;;;;;;;10.35;4.65;;;22.80;82.60;;;;;;5008807;28;20040;-59
2022/10/10 14:47:19;;;;;;;11.40;5.10;;;23.00;82.20;;;;;;5009398;28;20030;-56
2022/10/10 14:50:17;;;;;;;10.73;4.78;;;22.50;82.20;;;;;;5015955;28;20030;-51
2022/10/10 14:53:03;;;;;;;9.88;4.65;;;22.70;81.90;;;;;;5008498;28;20021;-54